Terminal Aerodrome Forecast
Issued by NWS Buffalo, NY

Home | Current Version | Previous Version | Text Only | Print | Product List | Glossary On
Versions: 1 2 3 4 5 6 7 8 9 10 11 12 13 14 15 16 17 18 19 20 21 22
000
FTUS41 KBUF 252339
TAFROC
TAF
KROC 252339Z 2600/2624 27009KT P6SM BKN100
     FM260100 25006KT P6SM SCT100
     FM261100 14004KT P6SM FEW110 SCT250
     FM261500 19005KT P6SM BKN060 BKN100
     FM261700 17006KT P6SM VCSH BKN045 BKN100
     FM262100 VRB03KT P6SM VCSH BKN030 OVC100=

USA.gov is the U.S. government's official web portal to all federal, state and local government web resources and services.